createdAt,value
2023-08-14T00:03:07.527Z,18.00
2023-08-14T00:05:34.977Z,17.90
2023-08-14T00:08:03.207Z,17.80
2023-08-14T00:10:30.501Z,17.80
2023-08-14T00:12:57.663Z,17.80
2023-08-14T00:15:25.621Z,17.80
2023-08-14T00:17:53.044Z,17.80
2023-08-14T00:20:23.480Z,17.70
2023-08-14T00:22:50.537Z,17.70
2023-08-14T00:25:18.847Z,17.70
2023-08-14T00:27:46.131Z,17.70
2023-08-14T00:30:13.848Z,17.80
2023-08-14T00:32:41.125Z,17.70
2023-08-14T00:35:09.410Z,17.70
2023-08-14T00:37:46.542Z,17.70
2023-08-14T00:40:15.607Z,17.70
2023-08-14T00:42:47.101Z,17.60
2023-08-14T00:45:14.493Z,17.50
2023-08-14T00:47:45.466Z,17.50
2023-08-14T00:50:14.149Z,17.60
2023-08-14T00:52:52.409Z,17.60
2023-08-14T00:55:23.841Z,17.70
2023-08-14T00:57:52.856Z,17.80
2023-08-14T01:00:19.882Z,17.80
2023-08-14T01:02:49.623Z,17.90
2023-08-14T01:05:17.577Z,17.90
2023-08-14T01:07:44.803Z,17.80
2023-08-14T01:10:13.416Z,17.80
2023-08-14T01:13:03.583Z,17.70
2023-08-14T01:15:40.478Z,17.70
2023-08-14T01:18:08.171Z,17.70
2023-08-14T01:20:38.750Z,17.70
2023-08-14T01:23:34.807Z,17.70
2023-08-14T01:26:04.374Z,17.70
2023-08-14T01:28:33.082Z,17.70
2023-08-14T01:31:00.373Z,17.70
2023-08-14T01:33:28.227Z,17.70
2023-08-14T01:36:27.953Z,17.70
2023-08-14T01:39:00.313Z,17.70
2023-08-14T01:41:33.070Z,17.70
2023-08-14T01:44:03.937Z,17.60
2023-08-14T01:46:37.063Z,17.60
2023-08-14T01:49:05.369Z,17.50
2023-08-14T01:51:33.147Z,17.50
2023-08-14T01:56:41.699Z,17.40
2023-08-14T01:59:08.795Z,17.40
2023-08-14T02:01:35.792Z,17.40
2023-08-14T02:04:04.135Z,17.50
2023-08-14T02:06:33.132Z,17.60
2023-08-14T02:09:00.519Z,17.50
2023-08-14T02:11:27.824Z,17.50
2023-08-14T02:13:54.889Z,17.50
2023-08-14T02:16:21.826Z,17.40
2023-08-14T02:18:48.859Z,17.40
2023-08-14T02:21:17.400Z,17.50
2023-08-14T02:23:47.291Z,17.50
2023-08-14T02:26:18.746Z,17.40
2023-08-14T02:28:47.352Z,17.50
2023-08-14T02:31:15.013Z,17.40
2023-08-14T02:33:43.218Z,17.40
2023-08-14T02:36:10.607Z,17.40
2023-08-14T02:38:38.879Z,17.30
2023-08-14T02:41:07.700Z,17.40
2023-08-14T02:43:35.981Z,17.30
2023-08-14T02:46:04.032Z,17.40
2023-08-14T02:48:31.042Z,17.30
2023-08-14T02:50:58.189Z,17.30
2023-08-14T02:53:25.932Z,17.30
2023-08-14T02:55:53.695Z,17.30
2023-08-14T02:58:22.114Z,17.40
2023-08-14T03:00:49.871Z,17.40
2023-08-14T03:03:18.741Z,17.30
2023-08-14T03:05:47.822Z,17.30
2023-08-14T03:08:17.941Z,17.30
2023-08-14T03:10:46.131Z,17.30
2023-08-14T03:13:13.700Z,17.20
2023-08-14T03:15:40.703Z,17.20
2023-08-14T03:18:10.579Z,17.20
2023-08-14T03:20:37.565Z,17.20
2023-08-14T03:23:05.120Z,17.30
2023-08-14T03:25:32.137Z,17.10
2023-08-14T03:27:59.182Z,17.10
2023-08-14T03:30:27.544Z,17.00
2023-08-14T03:32:54.712Z,17.00
2023-08-14T03:35:21.897Z,17.00
2023-08-14T03:37:49.756Z,17.00
2023-08-14T03:40:17.139Z,17.00
2023-08-14T03:42:44.237Z,17.00
2023-08-14T03:45:14.216Z,17.10
2023-08-14T03:47:41.382Z,17.10
2023-08-14T03:50:09.449Z,17.10
2023-08-14T03:52:36.488Z,17.20
2023-08-14T03:55:04.826Z,17.10
2023-08-14T03:57:31.859Z,17.10
2023-08-14T03:59:58.847Z,17.10
2023-08-14T04:02:27.036Z,17.10
2023-08-14T04:04:54.046Z,17.20
2023-08-14T04:07:21.162Z,17.20
2023-08-14T04:09:48.214Z,17.20
2023-08-14T04:12:16.238Z,17.20
2023-08-14T04:14:45.165Z,17.20
2023-08-14T04:17:12.615Z,17.30
2023-08-14T04:19:39.811Z,17.30
2023-08-14T04:22:07.831Z,17.30
2023-08-14T04:24:35.008Z,17.30
2023-08-14T04:27:03.100Z,17.20
2023-08-14T04:29:30.471Z,17.20
2023-08-14T04:31:59.053Z,17.20
2023-08-14T04:34:26.135Z,17.20
2023-08-14T04:36:53.075Z,17.10
2023-08-14T04:39:21.464Z,17.10
2023-08-14T04:41:52.832Z,17.20
2023-08-14T04:44:20.020Z,17.20
2023-08-14T04:46:59.568Z,17.10
2023-08-14T04:49:27.722Z,17.20
2023-08-14T04:51:54.734Z,17.20
2023-08-14T04:54:23.631Z,17.20
2023-08-14T04:56:51.032Z,17.20
2023-08-14T04:59:19.248Z,17.30
2023-08-14T05:01:46.588Z,17.40
2023-08-14T05:04:13.848Z,17.40
2023-08-14T05:06:41.863Z,17.40
2023-08-14T05:09:24.250Z,17.40
2023-08-14T05:11:53.255Z,17.50
2023-08-14T05:14:21.152Z,17.50
2023-08-14T05:16:48.308Z,17.40
2023-08-14T05:19:15.484Z,17.40
2023-08-14T05:21:43.251Z,17.50
2023-08-14T05:24:10.648Z,17.40
2023-08-14T05:26:40.467Z,17.40
2023-08-14T05:29:08.433Z,17.50
2023-08-14T05:31:35.683Z,17.50
2023-08-14T05:34:03.961Z,17.50
2023-08-14T05:36:31.090Z,17.60
2023-08-14T05:38:58.098Z,17.60
2023-08-14T05:41:26.461Z,17.60
2023-08-14T05:43:53.579Z,17.60
2023-08-14T05:46:25.148Z,17.70
2023-08-14T05:48:52.697Z,17.70
2023-08-14T05:51:20.584Z,17.70
2023-08-14T05:53:47.713Z,17.70
2023-08-14T05:56:14.975Z,17.70
2023-08-14T05:58:42.466Z,17.70
2023-08-14T06:01:09.869Z,17.70
2023-08-14T06:03:44.891Z,17.70
2023-08-14T06:06:14.031Z,17.80
2023-08-14T06:08:42.414Z,17.80
2023-08-14T06:11:09.767Z,17.80
2023-08-14T06:13:36.974Z,17.70
2023-08-14T06:16:04.283Z,17.80
2023-08-14T06:18:31.287Z,18.00
2023-08-14T06:20:59.606Z,18.10
2023-08-14T06:23:27.627Z,18.40
2023-08-14T06:26:01.354Z,18.40
2023-08-14T06:28:28.673Z,18.40
2023-08-14T06:30:55.901Z,18.40
2023-08-14T06:33:24.347Z,18.40
2023-08-14T06:35:51.526Z,18.30
2023-08-14T06:38:18.632Z,18.50
2023-08-14T06:40:46.470Z,18.40
2023-08-14T06:43:13.589Z,18.40
2023-08-14T06:45:40.670Z,18.60
2023-08-14T06:48:10.798Z,18.60
2023-08-14T06:50:40.469Z,18.80
2023-08-14T06:53:10.468Z,18.90
2023-08-14T06:55:37.562Z,18.90
2023-08-14T06:58:07.665Z,19.00
2023-08-14T07:00:34.766Z,19.20
2023-08-14T07:03:02.628Z,19.20
2023-08-14T07:05:30.565Z,19.30
2023-08-14T07:08:01.906Z,19.50
2023-08-14T07:10:29.193Z,19.50
2023-08-14T07:13:02.290Z,19.70
2023-08-14T07:15:29.502Z,19.80
2023-08-14T07:17:57.765Z,20.00
2023-08-14T07:20:26.694Z,20.10
2023-08-14T07:22:56.189Z,20.20
2023-08-14T07:25:23.394Z,20.20
2023-08-14T07:27:51.185Z,20.20
2023-08-14T07:30:18.960Z,20.30
2023-08-14T07:32:46.227Z,20.40
2023-08-14T07:35:13.882Z,20.50
2023-08-14T07:37:41.242Z,20.70
2023-08-14T07:40:11.550Z,20.90
2023-08-14T07:42:38.571Z,20.90
2023-08-14T07:45:07.102Z,21.10
2023-08-14T07:47:36.316Z,21.20
2023-08-14T07:50:03.757Z,21.20
2023-08-14T07:52:33.616Z,21.30
2023-08-14T07:55:00.626Z,21.40
2023-08-14T07:57:28.671Z,21.50
2023-08-14T07:59:57.036Z,21.60
2023-08-14T08:02:24.185Z,21.70
2023-08-14T08:04:51.650Z,22.00
2023-08-14T08:07:25.024Z,22.00
2023-08-14T08:09:55.568Z,22.10
2023-08-14T08:12:24.099Z,22.20
2023-08-14T08:14:51.220Z,22.40
2023-08-14T08:17:21.008Z,22.50
2023-08-14T08:19:48.888Z,22.50
2023-08-14T08:22:15.926Z,22.70
2023-08-14T08:24:43.133Z,22.90
2023-08-14T08:27:15.446Z,23.00
2023-08-14T08:29:42.624Z,23.10
2023-08-14T08:32:09.775Z,23.20
2023-08-14T08:34:38.039Z,23.30
2023-08-14T08:37:05.203Z,23.60
2023-08-14T08:39:32.793Z,23.60
2023-08-14T08:42:02.515Z,23.80
2023-08-14T08:44:37.527Z,24.10
2023-08-14T08:47:12.575Z,24.20
2023-08-14T08:49:43.802Z,24.30
2023-08-14T08:52:15.235Z,24.40
2023-08-14T08:54:43.634Z,24.40
2023-08-14T08:57:11.275Z,24.50
2023-08-14T08:59:42.172Z,24.70
2023-08-14T09:02:09.910Z,24.70
2023-08-14T09:04:37.176Z,24.90
2023-08-14T09:07:06.165Z,25.10
2023-08-14T09:09:34.280Z,25.20
2023-08-14T09:12:03.898Z,25.30
2023-08-14T09:14:32.114Z,25.30
2023-08-14T09:17:01.034Z,25.10
2023-08-14T09:19:33.862Z,25.60
2023-08-14T09:22:04.350Z,25.70
2023-08-14T09:24:36.107Z,25.90
2023-08-14T09:27:07.036Z,25.80
2023-08-14T09:29:34.653Z,25.90
2023-08-14T09:32:02.734Z,25.80
2023-08-14T09:34:35.309Z,26.00
2023-08-14T09:37:02.455Z,26.00
2023-08-14T09:39:29.786Z,26.20
2023-08-14T09:41:57.232Z,26.00
2023-08-14T09:44:27.833Z,26.00
2023-08-14T09:46:56.794Z,26.10
2023-08-14T09:49:28.989Z,26.30
2023-08-14T09:52:00.440Z,26.30
2023-08-14T09:54:34.470Z,26.40
2023-08-14T09:59:37.769Z,26.20
2023-08-14T10:02:11.736Z,26.20
2023-08-14T10:04:42.912Z,26.30
2023-08-14T10:07:28.691Z,26.60
2023-08-14T10:09:58.727Z,26.70
2023-08-14T10:12:33.485Z,26.80
2023-08-14T10:15:09.521Z,27.00
2023-08-14T10:17:49.175Z,27.10
2023-08-14T10:20:20.833Z,27.00
2023-08-14T10:22:49.743Z,27.10
2023-08-14T10:25:20.704Z,27.40
2023-08-14T10:27:48.403Z,27.50
2023-08-14T10:30:16.223Z,27.40
2023-08-14T10:32:44.539Z,27.60
2023-08-14T10:35:16.034Z,27.90
2023-08-14T10:38:00.093Z,27.60
2023-08-14T10:40:35.486Z,27.70
2023-08-14T10:43:07.596Z,27.80
2023-08-14T10:45:38.140Z,27.80
2023-08-14T10:48:13.813Z,27.70
2023-08-14T10:50:41.096Z,28.00
2023-08-14T10:53:13.476Z,28.30
2023-08-14T10:55:46.403Z,28.40
2023-08-14T10:58:39.321Z,28.40
2023-08-14T11:01:11.269Z,27.90
2023-08-14T11:04:04.731Z,28.20
2023-08-14T11:07:06.333Z,28.50
2023-08-14T11:09:37.254Z,28.70
2023-08-14T11:12:06.969Z,28.90
2023-08-14T11:14:40.005Z,29.10
2023-08-14T11:17:09.422Z,29.10
2023-08-14T11:19:41.822Z,29.10
2023-08-14T11:22:09.355Z,29.30
2023-08-14T11:24:40.114Z,29.30
2023-08-14T11:27:08.171Z,28.90
2023-08-14T11:32:09.273Z,29.30
2023-08-14T11:34:38.372Z,29.20
2023-08-14T11:37:08.104Z,29.30
2023-08-14T11:39:36.324Z,29.30
2023-08-14T11:42:05.101Z,29.70
2023-08-14T11:44:36.417Z,29.80
2023-08-14T11:47:11.165Z,29.90
2023-08-14T11:49:41.332Z,29.70
2023-08-14T11:52:09.002Z,29.80
2023-08-14T11:54:37.400Z,29.70
2023-08-14T11:57:06.688Z,29.70
2023-08-14T11:59:34.265Z,30.00
2023-08-14T12:02:04.741Z,29.90
2023-08-14T12:04:32.714Z,30.30
2023-08-14T12:07:01.726Z,30.00
2023-08-14T12:09:30.889Z,30.50
2023-08-14T12:11:58.951Z,30.70
2023-08-14T12:14:39.494Z,30.20
2023-08-14T12:17:18.027Z,30.30
2023-08-14T12:19:58.631Z,30.30
2023-08-14T12:22:28.021Z,30.10
2023-08-14T12:24:55.841Z,30.20
2023-08-14T12:27:30.840Z,30.30
2023-08-14T12:29:57.980Z,30.50
2023-08-14T12:32:26.928Z,30.60
2023-08-14T12:34:55.593Z,30.20
2023-08-14T12:37:23.244Z,30.20
2023-08-14T12:39:54.054Z,30.20
2023-08-14T12:42:21.767Z,30.00
2023-08-14T12:44:54.754Z,30.10
2023-08-14T12:47:24.665Z,29.60
2023-08-14T12:49:54.159Z,29.90
2023-08-14T12:52:21.543Z,30.20
2023-08-14T12:54:48.720Z,30.40
2023-08-14T12:57:16.087Z,30.20
2023-08-14T12:59:50.740Z,30.30
2023-08-14T13:02:24.463Z,30.50
2023-08-14T13:04:56.980Z,30.60
2023-08-14T13:07:33.187Z,30.50
2023-08-14T13:10:03.865Z,30.30
2023-08-14T13:12:32.324Z,30.30
2023-08-14T13:14:59.448Z,30.30
2023-08-14T13:17:26.688Z,30.40
2023-08-14T13:19:54.863Z,30.30
2023-08-14T13:22:23.244Z,30.30
2023-08-14T13:27:25.489Z,30.30
2023-08-14T13:29:52.533Z,30.50
2023-08-14T13:32:20.189Z,30.20
2023-08-14T13:34:48.523Z,30.20
2023-08-14T13:37:19.260Z,30.40
2023-08-14T13:39:47.476Z,30.60
2023-08-14T13:42:14.665Z,31.00
2023-08-14T13:44:44.000Z,31.00
2023-08-14T13:47:19.044Z,31.00
2023-08-14T13:49:46.849Z,31.00
2023-08-14T13:52:14.054Z,31.60
2023-08-14T13:54:43.997Z,32.10
2023-08-14T13:57:13.016Z,32.10
2023-08-14T13:59:40.808Z,32.20
2023-08-14T14:02:08.272Z,32.30
2023-08-14T14:04:35.553Z,32.60
2023-08-14T14:07:03.494Z,32.90
2023-08-14T14:09:30.721Z,32.50
2023-08-14T14:12:00.206Z,32.70
2023-08-14T14:14:27.447Z,33.20
2023-08-14T14:17:03.083Z,33.20
2023-08-14T14:19:31.434Z,32.90
2023-08-14T14:21:59.931Z,32.70
2023-08-14T14:24:30.152Z,31.90
2023-08-14T14:27:04.285Z,31.90
2023-08-14T14:29:32.990Z,32.00
2023-08-14T14:32:02.321Z,32.30
2023-08-14T14:34:30.265Z,32.10
2023-08-14T14:36:58.216Z,32.00
2023-08-14T14:39:25.325Z,32.00
2023-08-14T14:41:52.794Z,31.90
2023-08-14T14:44:19.922Z,31.80
2023-08-14T14:46:47.097Z,31.30
2023-08-14T14:49:14.437Z,31.20
2023-08-14T14:51:42.117Z,31.50
2023-08-14T14:54:09.365Z,31.60
2023-08-14T14:56:40.224Z,31.40
2023-08-14T14:59:08.480Z,31.50
2023-08-14T15:01:35.748Z,31.60
2023-08-14T15:04:05.042Z,31.50
2023-08-14T15:06:32.401Z,30.90
2023-08-14T15:08:59.592Z,30.70
2023-08-14T15:11:27.133Z,30.80
2023-08-14T15:13:54.183Z,30.80
2023-08-14T15:16:21.533Z,31.10
2023-08-14T15:18:49.091Z,31.40
2023-08-14T15:21:16.085Z,31.30
2023-08-14T15:23:43.198Z,31.00
2023-08-14T15:26:20.342Z,30.90
2023-08-14T15:28:47.394Z,31.10
2023-08-14T15:31:14.453Z,31.40
2023-08-14T15:33:43.130Z,31.50
2023-08-14T15:36:10.176Z,31.70
2023-08-14T15:38:37.357Z,31.90
2023-08-14T15:41:11.860Z,31.90
2023-08-14T15:43:39.184Z,31.70
2023-08-14T15:46:06.658Z,31.60
2023-08-14T15:48:34.093Z,31.90
2023-08-14T15:51:01.144Z,32.10
2023-08-14T15:53:28.325Z,31.80
2023-08-14T15:55:56.138Z,31.40
2023-08-14T15:58:23.329Z,31.40
2023-08-14T16:00:50.289Z,31.50
2023-08-14T16:03:19.196Z,31.50
2023-08-14T16:05:55.484Z,31.60
2023-08-14T16:08:22.634Z,31.50
2023-08-14T16:10:49.806Z,31.50
2023-08-14T16:13:17.092Z,31.30
2023-08-14T16:15:44.232Z,31.10
2023-08-14T16:18:11.737Z,31.00
2023-08-14T16:20:38.974Z,31.00
2023-08-14T16:23:06.224Z,31.20
2023-08-14T16:25:33.495Z,31.30
2023-08-14T16:28:00.836Z,30.90
2023-08-14T16:30:28.232Z,31.10
2023-08-14T16:32:55.487Z,31.20
2023-08-14T16:35:22.903Z,31.20
2023-08-14T16:37:52.941Z,31.20
2023-08-14T16:40:26.102Z,31.30
2023-08-14T16:42:54.274Z,31.20
2023-08-14T16:45:21.356Z,31.10
2023-08-14T16:47:51.722Z,31.10
2023-08-14T16:50:18.949Z,30.90
2023-08-14T16:52:46.959Z,31.00
2023-08-14T16:55:16.465Z,30.80
2023-08-14T16:57:43.906Z,30.60
2023-08-14T17:00:14.162Z,30.40
2023-08-14T17:02:41.740Z,30.00
2023-08-14T17:05:09.847Z,30.00
2023-08-14T17:07:37.379Z,29.80
2023-08-14T17:10:05.112Z,29.70
2023-08-14T17:12:32.214Z,29.70
2023-08-14T17:15:00.011Z,29.60
2023-08-14T17:17:32.216Z,29.60
2023-08-14T17:20:00.158Z,29.70
2023-08-14T17:22:28.330Z,29.60
2023-08-14T17:24:55.383Z,29.70
2023-08-14T17:27:22.702Z,29.70
2023-08-14T17:29:51.222Z,29.60
2023-08-14T17:32:19.534Z,29.60
2023-08-14T17:34:49.163Z,29.30
2023-08-14T17:37:16.791Z,29.30
2023-08-14T17:39:44.098Z,29.10
2023-08-14T17:42:12.368Z,29.20
2023-08-14T17:44:41.721Z,29.10
2023-08-14T17:47:09.567Z,28.90
2023-08-14T17:49:38.278Z,28.90
2023-08-14T17:52:05.688Z,28.90
2023-08-14T17:54:32.735Z,28.80
2023-08-14T17:57:01.994Z,28.70
2023-08-14T17:59:29.835Z,28.70
2023-08-14T18:01:57.600Z,28.90
2023-08-14T18:04:25.188Z,28.70
2023-08-14T18:06:53.580Z,28.70
2023-08-14T18:09:24.894Z,28.60
2023-08-14T18:11:52.573Z,28.60
2023-08-14T18:14:19.977Z,28.30
2023-08-14T18:16:47.271Z,28.10
2023-08-14T18:19:29.288Z,28.40
2023-08-14T18:21:57.822Z,28.40
2023-08-14T18:24:27.776Z,28.40
2023-08-14T18:26:56.710Z,28.00
2023-08-14T18:29:24.287Z,27.90
2023-08-14T18:31:52.551Z,27.80
2023-08-14T18:34:20.754Z,27.60
2023-08-14T18:36:47.790Z,27.30
2023-08-14T18:39:16.646Z,27.20
2023-08-14T18:41:44.519Z,27.10
2023-08-14T18:44:11.498Z,26.90
2023-08-14T18:46:40.002Z,26.90
2023-08-14T18:49:07.346Z,26.90
2023-08-14T18:51:34.465Z,26.80
2023-08-14T18:54:04.041Z,26.40
2023-08-14T18:56:31.232Z,26.20
2023-08-14T18:58:59.499Z,26.00
2023-08-14T19:01:27.201Z,26.10
2023-08-14T19:03:54.704Z,25.90
2023-08-14T19:06:23.760Z,26.00
2023-08-14T19:08:51.009Z,26.10
2023-08-14T19:11:18.052Z,25.90
2023-08-14T19:13:45.589Z,25.70
2023-08-14T19:16:12.790Z,25.50
2023-08-14T19:18:41.007Z,25.70
2023-08-14T19:21:10.011Z,25.60
2023-08-14T19:23:37.812Z,25.60
2023-08-14T19:26:14.914Z,25.40
2023-08-14T19:28:48.525Z,25.20
2023-08-14T19:31:16.916Z,25.00
2023-08-14T19:33:44.378Z,24.90
2023-08-14T19:36:15.365Z,24.80
2023-08-14T19:38:42.538Z,24.70
2023-08-14T19:41:10.684Z,24.60
2023-08-14T19:43:37.694Z,24.60
2023-08-14T19:46:07.402Z,24.40
2023-08-14T19:48:34.838Z,24.40
2023-08-14T19:51:02.331Z,24.50
2023-08-14T19:53:30.050Z,24.40
2023-08-14T19:55:57.815Z,24.30
2023-08-14T19:58:24.859Z,24.20
2023-08-14T20:00:51.954Z,24.30
2023-08-14T20:03:19.466Z,24.30
2023-08-14T20:05:48.844Z,24.30
2023-08-14T20:08:16.599Z,24.20
2023-08-14T20:10:43.702Z,24.20
2023-08-14T20:13:11.927Z,24.30
2023-08-14T20:15:47.020Z,24.30
2023-08-14T20:18:16.390Z,24.30
2023-08-14T20:20:44.637Z,24.20
2023-08-14T20:23:13.788Z,24.10
2023-08-14T20:25:45.101Z,24.10
2023-08-14T20:28:13.890Z,24.00
2023-08-14T20:30:44.148Z,23.90
2023-08-14T20:33:12.466Z,23.80
2023-08-14T20:35:45.196Z,23.80
2023-08-14T20:38:14.763Z,23.80
2023-08-14T20:40:42.341Z,23.70
2023-08-14T20:43:20.923Z,23.70
2023-08-14T20:45:50.144Z,23.80
2023-08-14T20:48:18.475Z,23.80
2023-08-14T20:50:47.247Z,23.70
2023-08-14T20:53:16.689Z,23.70
2023-08-14T20:55:45.520Z,23.70
2023-08-14T20:58:12.636Z,23.70
2023-08-14T21:00:46.237Z,23.80
2023-08-14T21:03:17.714Z,23.70
2023-08-14T21:05:49.850Z,23.60
2023-08-14T21:08:17.672Z,23.60
2023-08-14T21:10:45.860Z,23.70
2023-08-14T21:13:13.103Z,23.60
2023-08-14T21:15:40.952Z,23.50
2023-08-14T21:18:11.053Z,23.50
2023-08-14T21:20:44.414Z,23.50
2023-08-14T21:23:14.051Z,23.60
2023-08-14T21:25:48.303Z,23.50
2023-08-14T21:28:16.979Z,23.50
2023-08-14T21:30:44.061Z,23.50
2023-08-14T21:33:11.332Z,23.40
2023-08-14T21:35:38.480Z,23.40
2023-08-14T21:38:06.389Z,23.30
2023-08-14T21:40:35.701Z,23.30
2023-08-14T21:43:04.703Z,23.20
2023-08-14T21:45:31.648Z,23.00
2023-08-14T21:47:58.948Z,22.90
2023-08-14T21:50:27.093Z,22.90
2023-08-14T21:52:54.314Z,22.80
2023-08-14T21:55:21.295Z,22.60
2023-08-14T21:57:48.469Z,22.50
2023-08-14T22:00:16.583Z,22.50
2023-08-14T22:02:44.571Z,22.50
2023-08-14T22:05:11.830Z,22.50
2023-08-14T22:07:38.903Z,22.40
2023-08-14T22:10:07.384Z,22.40
2023-08-14T22:12:34.653Z,22.40
2023-08-14T22:15:01.750Z,22.40
2023-08-14T22:17:32.217Z,22.30
2023-08-14T22:19:59.463Z,22.60
2023-08-14T22:22:26.558Z,22.60
2023-08-14T22:24:53.519Z,22.40
2023-08-14T22:27:25.337Z,22.20
2023-08-14T22:29:52.624Z,22.20
2023-08-14T22:32:20.154Z,22.10
2023-08-14T22:34:47.175Z,22.10
2023-08-14T22:37:15.841Z,22.10
2023-08-14T22:39:43.501Z,22.00
2023-08-14T22:42:10.689Z,22.00
2023-08-14T22:44:37.787Z,22.10
2023-08-14T22:47:05.128Z,22.10
2023-08-14T22:49:33.043Z,22.00
2023-08-14T22:52:00.244Z,21.90
2023-08-14T22:54:30.582Z,21.80
2023-08-14T22:57:00.424Z,21.80
2023-08-14T22:59:28.842Z,21.70
2023-08-14T23:01:56.011Z,21.60
2023-08-14T23:04:25.422Z,21.50
2023-08-14T23:06:53.131Z,21.50
2023-08-14T23:09:21.160Z,21.40
2023-08-14T23:11:48.586Z,21.60
2023-08-14T23:14:15.985Z,21.60
2023-08-14T23:16:43.038Z,21.60
2023-08-14T23:19:10.087Z,21.50
2023-08-14T23:21:38.133Z,21.40
2023-08-14T23:24:05.378Z,21.40
2023-08-14T23:26:33.175Z,21.20
2023-08-14T23:29:00.397Z,21.10
2023-08-14T23:31:28.843Z,21.20
2023-08-14T23:33:56.151Z,21.20
2023-08-14T23:36:25.537Z,21.20
2023-08-14T23:38:53.917Z,21.00
2023-08-14T23:41:21.067Z,21.10
2023-08-14T23:43:48.073Z,21.10
2023-08-14T23:46:15.333Z,21.10
2023-08-14T23:48:42.441Z,21.30
2023-08-14T23:51:09.566Z,21.10
2023-08-14T23:53:36.768Z,20.90
2023-08-14T23:56:04.967Z,20.90
2023-08-14T23:58:31.956Z,20.90
